createdAt,value
2018-12-22T00:00:13.526Z,0
2018-12-22T00:01:23.716Z,0
2018-12-22T00:02:33.811Z,0
2018-12-22T00:03:43.882Z,0
2018-12-22T00:04:53.967Z,0
2018-12-22T00:06:04.789Z,0
2018-12-22T00:07:14.901Z,0
2018-12-22T00:08:25.268Z,0
2018-12-22T00:09:35.386Z,0
2018-12-22T00:10:45.476Z,0
2018-12-22T00:11:55.635Z,0
2018-12-22T00:13:05.797Z,0
2018-12-22T00:14:16.003Z,0
2018-12-22T00:15:26.216Z,0
2018-12-22T00:16:36.334Z,0
2018-12-22T00:17:46.242Z,0
2018-12-22T00:18:56.464Z,0
2018-12-22T00:20:06.900Z,0
2018-12-22T00:21:16.961Z,0
2018-12-22T00:22:27.020Z,0
2018-12-22T00:23:36.834Z,0
2018-12-22T00:24:46.879Z,0
2018-12-22T00:25:57.007Z,0
2018-12-22T00:27:07.104Z,0
2018-12-22T00:28:24.535Z,0
2018-12-22T00:29:34.339Z,0
2018-12-22T00:30:44.419Z,0
2018-12-22T00:31:54.491Z,0
2018-12-22T00:33:04.577Z,0
2018-12-22T00:34:14.621Z,0
2018-12-22T00:35:24.437Z,0
2018-12-22T00:36:34.471Z,0
2018-12-22T00:37:44.329Z,0
2018-12-22T00:38:54.167Z,0
2018-12-22T00:40:04.393Z,0
2018-12-22T00:41:13.947Z,0
2018-12-22T00:42:24.068Z,0
2018-12-22T00:43:34.138Z,0
2018-12-22T00:44:44.237Z,0
2018-12-22T00:45:54.070Z,0
2018-12-22T00:47:04.132Z,0
2018-12-22T00:48:14.223Z,0
2018-12-22T00:49:24.293Z,0
2018-12-22T00:50:34.126Z,0
2018-12-22T00:51:44.196Z,0
2018-12-22T00:52:54.302Z,0
2018-12-22T00:54:04.376Z,0
2018-12-22T00:55:14.586Z,0
2018-12-22T00:56:24.404Z,0
2018-12-22T00:57:34.455Z,0
2018-12-22T00:58:44.320Z,0
2018-12-22T00:59:54.137Z,0
2018-12-22T01:01:04.220Z,0
2018-12-22T01:02:13.795Z,0
2018-12-22T01:03:23.709Z,0
2018-12-22T01:04:33.803Z,0
2018-12-22T01:05:43.611Z,0
2018-12-22T01:06:55.225Z,0
2018-12-22T01:08:08.388Z,0
2018-12-22T01:09:18.611Z,0
2018-12-22T01:10:28.723Z,0
2018-12-22T01:11:38.765Z,0
2018-12-22T01:12:48.846Z,0
2018-12-22T01:13:58.676Z,0
2018-12-22T01:15:10.401Z,0
2018-12-22T01:16:20.223Z,0
2018-12-22T01:17:30.405Z,0
2018-12-22T01:18:40.526Z,0
2018-12-22T01:19:50.584Z,0
2018-12-22T01:21:01.383Z,0
2018-12-22T01:22:11.557Z,0
2018-12-22T01:23:21.622Z,0
2018-12-22T01:24:31.702Z,0
2018-12-22T01:25:41.808Z,0
2018-12-22T01:26:51.612Z,0
2018-12-22T01:28:03.640Z,0
2018-12-22T01:29:13.942Z,0
2018-12-22T01:30:24.018Z,0
2018-12-22T01:31:33.833Z,0
2018-12-22T01:32:43.875Z,0
2018-12-22T01:33:53.962Z,0
2018-12-22T01:35:04.147Z,0
2018-12-22T01:36:14.217Z,0
2018-12-22T01:37:24.273Z,0
2018-12-22T01:38:34.341Z,0
2018-12-22T01:39:44.398Z,0
2018-12-22T01:40:54.459Z,0
2018-12-22T01:42:04.538Z,0
2018-12-22T01:43:14.614Z,0
2018-12-22T01:44:24.690Z,0
2018-12-22T01:45:34.732Z,0
2018-12-22T01:46:44.558Z,0
2018-12-22T01:47:54.461Z,0
2018-12-22T01:49:05.419Z,0
2018-12-22T01:50:15.567Z,0
2018-12-22T01:51:25.706Z,0
2018-12-22T01:52:36.026Z,0
2018-12-22T01:53:45.826Z,0
2018-12-22T01:54:55.903Z,0
2018-12-22T01:56:05.963Z,0
2018-12-22T01:57:16.060Z,0
2018-12-22T01:58:26.240Z,0
2018-12-22T01:59:36.357Z,0
2018-12-22T02:00:46.468Z,0
2018-12-22T02:01:56.531Z,0
2018-12-22T02:03:06.356Z,0
2018-12-22T02:04:16.426Z,0
2018-12-22T02:05:26.492Z,0
2018-12-22T02:06:36.575Z,0
2018-12-22T02:07:46.421Z,0
2018-12-22T02:08:56.492Z,0
2018-12-22T02:10:06.544Z,0
2018-12-22T02:11:16.603Z,0
2018-12-22T02:12:26.668Z,0
2018-12-22T02:13:36.561Z,0
2018-12-22T02:14:46.372Z,0
2018-12-22T02:15:55.944Z,0
2018-12-22T02:17:06.012Z,0
2018-12-22T02:18:16.085Z,0
2018-12-22T02:19:26.141Z,0
2018-12-22T02:20:36.189Z,0
2018-12-22T02:21:46.131Z,0
2018-12-22T02:22:56.211Z,0
2018-12-22T02:24:06.261Z,0
2018-12-22T02:25:16.050Z,0
2018-12-22T02:26:26.131Z,0
2018-12-22T02:27:36.181Z,0
2018-12-22T02:28:46.284Z,0
2018-12-22T02:30:04.787Z,0
2018-12-22T02:31:14.847Z,0
2018-12-22T02:32:25.721Z,0
2018-12-22T02:33:35.930Z,0
2018-12-22T02:34:45.829Z,0
2018-12-22T02:35:55.923Z,0
2018-12-22T02:37:06.032Z,0
2018-12-22T02:38:16.112Z,0
2018-12-22T02:39:26.240Z,0
2018-12-22T02:40:36.356Z,0
2018-12-22T02:41:46.470Z,0
2018-12-22T02:42:56.690Z,0
2018-12-22T02:44:06.820Z,0
2018-12-22T02:45:17.263Z,0
2018-12-22T02:46:27.335Z,0
2018-12-22T02:47:37.660Z,0
2018-12-22T02:48:47.725Z,0
2018-12-22T02:49:58.031Z,0
2018-12-22T02:51:07.888Z,0
2018-12-22T02:52:17.967Z,0
2018-12-22T02:53:28.062Z,0
2018-12-22T02:54:38.164Z,0
2018-12-22T02:55:48.264Z,0
2018-12-22T02:56:58.317Z,0
2018-12-22T02:58:08.834Z,0
2018-12-22T02:59:18.906Z,0
2018-12-22T03:00:28.981Z,0
2018-12-22T03:01:39.257Z,0
2018-12-22T03:02:49.402Z,0
2018-12-22T03:35:00.735Z,0
2018-12-22T03:36:10.547Z,0
2018-12-22T03:37:20.601Z,0
2018-12-22T03:38:30.463Z,0
2018-12-22T03:39:40.285Z,0
2018-12-22T03:40:50.367Z,0
2018-12-22T03:42:00.417Z,0
2018-12-22T03:43:10.496Z,0
2018-12-22T03:44:20.320Z,0
2018-12-22T03:45:30.240Z,0
2018-12-22T03:46:39.945Z,0
2018-12-22T03:47:49.847Z,0
2018-12-22T03:48:59.657Z,0
2018-12-22T03:50:09.714Z,0
2018-12-22T03:51:19.782Z,0
2018-12-22T03:52:29.640Z,0
2018-12-22T03:53:39.758Z,0
2018-12-22T03:54:49.574Z,0
2018-12-22T03:56:00.007Z,0
2018-12-22T03:57:09.825Z,0
2018-12-22T03:58:19.669Z,0
2018-12-22T03:59:32.446Z,0
2018-12-22T04:00:42.264Z,0
2018-12-22T04:01:52.160Z,0
2018-12-22T04:03:01.974Z,0
2018-12-22T04:04:12.081Z,0
2018-12-22T04:05:22.146Z,0
2018-12-22T04:06:32.211Z,0
2018-12-22T04:07:42.400Z,0
2018-12-22T04:08:52.490Z,0
2018-12-22T04:10:03.561Z,0
2018-12-22T04:11:13.628Z,0
2018-12-22T04:12:23.830Z,0
2018-12-22T04:13:33.650Z,0
2018-12-22T04:14:43.453Z,0
2018-12-22T04:15:53.517Z,0
2018-12-22T04:17:04.594Z,0
2018-12-22T04:18:14.662Z,0
2018-12-22T04:19:24.752Z,0
2018-12-22T04:20:35.134Z,0
2018-12-22T04:21:45.215Z,0
2018-12-22T04:22:55.274Z,0
2018-12-22T04:24:05.347Z,0
2018-12-22T04:25:15.137Z,0
2018-12-22T04:26:25.220Z,0
2018-12-22T04:27:35.027Z,0
2018-12-22T04:28:45.102Z,0
2018-12-22T04:29:55.413Z,0
2018-12-22T04:31:05.486Z,0
2018-12-22T04:32:15.689Z,0
2018-12-22T04:33:25.827Z,0
2018-12-22T04:34:35.904Z,0
2018-12-22T04:35:45.956Z,0
2018-12-22T04:36:56.011Z,0
2018-12-22T04:38:05.930Z,0
2018-12-22T04:39:16.218Z,0
2018-12-22T04:40:26.293Z,0
2018-12-22T04:41:36.110Z,0
2018-12-22T04:42:46.222Z,0
2018-12-22T04:43:56.291Z,0
2018-12-22T04:45:06.165Z,0
2018-12-22T04:46:16.214Z,0
2018-12-22T04:47:25.877Z,0
2018-12-22T04:48:35.694Z,0
2018-12-22T04:49:45.770Z,0
2018-12-22T04:50:55.603Z,0
2018-12-22T04:52:05.918Z,0
2018-12-22T04:53:15.706Z,0
2018-12-22T04:54:25.862Z,0
2018-12-22T04:55:35.934Z,0
2018-12-22T04:56:46.045Z,0
2018-12-22T04:57:55.854Z,0
2018-12-22T04:59:08.466Z,0
2018-12-22T05:00:19.069Z,0
2018-12-22T05:01:29.126Z,0
2018-12-22T05:02:38.777Z,0
2018-12-22T05:03:48.653Z,0
2018-12-22T05:04:58.441Z,0
2018-12-22T05:06:08.040Z,0
2018-12-22T05:07:18.112Z,0
2018-12-22T05:08:27.928Z,0
2018-12-22T05:09:37.990Z,0
2018-12-22T05:10:48.053Z,0
2018-12-22T05:11:58.124Z,0
2018-12-22T05:13:08.196Z,0
2018-12-22T05:14:18.517Z,0
2018-12-22T05:15:28.577Z,0
2018-12-22T05:16:38.655Z,0
2018-12-22T05:17:48.719Z,0
2018-12-22T05:18:58.780Z,0
2018-12-22T05:20:08.905Z,0
2018-12-22T05:21:18.698Z,0
2018-12-22T05:22:28.761Z,0
2018-12-22T05:23:38.648Z,0
2018-12-22T05:24:48.739Z,0
2018-12-22T05:25:58.551Z,0
2018-12-22T05:27:08.606Z,0
2018-12-22T05:28:18.650Z,0
2018-12-22T05:29:28.729Z,0
2018-12-22T05:30:38.282Z,0
2018-12-22T05:31:48.355Z,0
2018-12-22T05:32:58.420Z,0
2018-12-22T05:34:10.982Z,0
2018-12-22T05:35:20.955Z,0
2018-12-22T05:36:31.070Z,0
2018-12-22T05:37:41.124Z,0
2018-12-22T05:38:50.935Z,0
2018-12-22T05:40:00.987Z,0
2018-12-22T05:41:11.030Z,0
2018-12-22T05:42:21.083Z,0
2018-12-22T05:43:31.126Z,0
2018-12-22T05:44:41.258Z,0
2018-12-22T05:45:51.075Z,0
2018-12-22T05:47:01.385Z,0
2018-12-22T05:48:11.449Z,0
2018-12-22T05:49:21.678Z,0
2018-12-22T05:50:31.686Z,0
2018-12-22T05:51:41.751Z,0
2018-12-22T05:52:51.314Z,0
2018-12-22T05:54:01.386Z,0
2018-12-22T05:55:11.522Z,0
2018-12-22T05:56:21.574Z,0
2018-12-22T05:57:31.637Z,0
2018-12-22T05:58:41.692Z,0
2018-12-22T06:00:00.154Z,0
2018-12-22T06:01:10.651Z,0
2018-12-22T06:02:20.699Z,0
2018-12-22T06:03:30.756Z,0
2018-12-22T06:04:40.821Z,0
2018-12-22T06:05:50.673Z,0
2018-12-22T06:07:01.227Z,0
2018-12-22T06:08:11.043Z,0
2018-12-22T06:09:20.855Z,0
2018-12-22T06:10:30.935Z,0
2018-12-22T06:11:40.865Z,0
2018-12-22T06:12:50.673Z,0
2018-12-22T06:14:02.903Z,0
2018-12-22T06:15:13.031Z,0
2018-12-22T06:16:23.089Z,0
2018-12-22T06:17:34.812Z,0
2018-12-22T06:18:45.010Z,0
2018-12-22T06:19:55.132Z,0
2018-12-22T06:21:05.195Z,4
2018-12-22T06:22:15.308Z,0
2018-12-22T06:23:26.698Z,4
2018-12-22T06:24:36.927Z,4
2018-12-22T06:25:46.994Z,4
2018-12-22T06:26:57.056Z,8
2018-12-22T06:28:07.109Z,8
2018-12-22T06:29:17.194Z,8
2018-12-22T06:30:26.740Z,12
2018-12-22T06:31:36.821Z,12
2018-12-22T06:32:46.871Z,12
2018-12-22T06:33:56.937Z,20
2018-12-22T06:35:06.520Z,20
2018-12-22T06:36:16.604Z,20
2018-12-22T06:37:26.655Z,24
2018-12-22T06:38:36.792Z,28
2018-12-22T06:39:48.211Z,28
2018-12-22T06:40:58.276Z,28
2018-12-22T06:42:08.346Z,32
2018-12-22T06:43:18.417Z,36
2018-12-22T06:44:28.244Z,36
2018-12-22T06:45:38.074Z,40
2018-12-22T06:46:47.888Z,40
2018-12-22T06:47:58.650Z,40
2018-12-22T06:49:09.475Z,44
2018-12-22T06:50:19.865Z,48
2018-12-22T06:51:29.669Z,52
2018-12-22T06:52:40.217Z,52
2018-12-22T06:53:50.312Z,56
2018-12-22T06:55:00.159Z,60
2018-12-22T06:56:09.973Z,60
2018-12-22T06:57:20.032Z,60
2018-12-22T06:58:30.078Z,64
2018-12-22T06:59:40.158Z,60
2018-12-22T07:00:50.241Z,56
2018-12-22T07:02:00.596Z,52
2018-12-22T07:03:10.684Z,48
2018-12-22T07:04:20.742Z,52
2018-12-22T07:05:30.852Z,52
2018-12-22T07:06:40.920Z,56
2018-12-22T07:07:50.758Z,56
2018-12-22T07:09:00.568Z,56
2018-12-22T07:10:10.624Z,60
2018-12-22T07:11:20.674Z,64
2018-12-22T07:12:30.765Z,64
2018-12-22T07:13:41.132Z,64
2018-12-22T07:14:50.933Z,68
2018-12-22T07:16:02.249Z,64
2018-12-22T07:17:12.307Z,60
2018-12-22T07:18:22.389Z,56
2018-12-22T07:19:32.485Z,60
2018-12-22T07:20:42.544Z,56
2018-12-22T07:21:52.848Z,60
2018-12-22T07:23:03.515Z,56
2018-12-22T07:24:13.590Z,52
2018-12-22T07:25:23.653Z,52
2018-12-22T07:26:33.724Z,56
2018-12-22T07:27:43.534Z,60
2018-12-22T07:28:53.618Z,64
2018-12-22T07:30:05.467Z,72
2018-12-22T07:31:15.563Z,80
2018-12-22T07:32:25.372Z,92
2018-12-22T07:33:35.170Z,104
2018-12-22T07:34:45.480Z,108
2018-12-22T07:35:55.547Z,108
2018-12-22T07:37:07.262Z,124
2018-12-22T07:38:17.317Z,136
2018-12-22T07:39:27.691Z,140
2018-12-22T07:40:37.298Z,140
2018-12-22T07:41:47.467Z,132
2018-12-22T07:42:57.742Z,120
2018-12-22T07:44:07.881Z,124
2018-12-22T07:45:17.936Z,140
2018-12-22T07:46:27.748Z,156
2018-12-22T07:47:37.823Z,168
2018-12-22T07:48:47.936Z,176
2018-12-22T07:49:58.015Z,176
2018-12-22T07:51:10.960Z,176
2018-12-22T07:52:20.985Z,188
2018-12-22T07:53:31.092Z,208
2018-12-22T07:54:41.152Z,256
2018-12-22T07:55:51.505Z,324
2018-12-22T07:57:01.579Z,392
2018-12-22T07:58:11.690Z,416
2018-12-22T07:59:21.847Z,396
2018-12-22T08:00:39.559Z,368
2018-12-22T08:01:49.645Z,380
2018-12-22T08:02:59.457Z,436
2018-12-22T08:04:09.285Z,560
2018-12-22T08:05:18.832Z,712
2018-12-22T08:06:28.907Z,840
2018-12-22T08:07:39.029Z,916
2018-12-22T08:08:49.113Z,952
2018-12-22T08:09:59.232Z,924
2018-12-22T08:11:09.328Z,884
2018-12-22T08:12:19.406Z,832
2018-12-22T08:13:29.435Z,792
2018-12-22T08:14:39.508Z,752
2018-12-22T08:15:50.400Z,696
2018-12-22T08:17:00.466Z,668
2018-12-22T08:18:10.566Z,612
2018-12-22T08:19:20.651Z,544
2018-12-22T08:20:30.728Z,468
2018-12-22T08:21:43.207Z,452
2018-12-22T08:22:54.201Z,472
2018-12-22T08:24:04.359Z,492
2018-12-22T08:25:14.179Z,504
2018-12-22T08:26:24.258Z,520
2018-12-22T08:27:34.108Z,544
2018-12-22T08:28:44.168Z,572
2018-12-22T08:29:54.038Z,532
2018-12-22T08:31:04.118Z,496
2018-12-22T08:32:13.929Z,488
2018-12-22T08:33:23.500Z,492
2018-12-22T08:34:33.581Z,528
2018-12-22T08:35:43.390Z,520
2018-12-22T08:36:54.482Z,436
2018-12-22T08:38:05.568Z,432
2018-12-22T08:39:15.703Z,520
2018-12-22T08:40:25.773Z,568
2018-12-22T08:41:35.843Z,540
2018-12-22T08:42:45.900Z,540
2018-12-22T08:43:55.463Z,688
2018-12-22T08:45:05.722Z,828
2018-12-22T08:46:15.800Z,1032
2018-12-22T08:47:25.729Z,1280
2018-12-22T08:48:35.812Z,1580
2018-12-22T08:49:45.895Z,1828
2018-12-22T08:50:56.409Z,2064
2018-12-22T08:52:06.490Z,2056
2018-12-22T08:53:16.662Z,1872
2018-12-22T08:54:26.728Z,1668
2018-12-22T08:55:36.556Z,1456
2018-12-22T08:56:46.412Z,1284
2018-12-22T08:57:56.290Z,1144
2018-12-22T08:59:07.245Z,1068
2018-12-22T09:00:18.098Z,1004
2018-12-22T09:01:28.188Z,976
2018-12-22T09:02:38.480Z,920
2018-12-22T09:03:48.295Z,920
2018-12-22T09:04:58.105Z,988
2018-12-22T09:06:08.570Z,1044
2018-12-22T09:07:18.654Z,912
2018-12-22T09:08:29.015Z,808
2018-12-22T09:09:39.006Z,816
2018-12-22T09:10:48.820Z,908
2018-12-22T09:11:59.008Z,1020
2018-12-22T09:13:09.744Z,1120
2018-12-22T09:14:28.572Z,1152
2018-12-22T09:15:38.370Z,1200
2018-12-22T09:16:48.538Z,1232
2018-12-22T09:17:58.386Z,1084
2018-12-22T09:19:10.247Z,920
2018-12-22T09:20:20.429Z,780
2018-12-22T09:21:30.568Z,712
2018-12-22T09:22:40.665Z,680
2018-12-22T09:23:50.520Z,684
2018-12-22T09:25:02.137Z,728
2018-12-22T09:26:13.463Z,768
2018-12-22T09:27:23.684Z,756
2018-12-22T09:28:34.022Z,772
2018-12-22T09:29:43.819Z,856
2018-12-22T09:31:00.686Z,996
2018-12-22T09:32:11.040Z,1116
2018-12-22T09:33:21.111Z,1204
2018-12-22T09:34:31.189Z,1260
2018-12-22T09:35:41.004Z,1280
2018-12-22T09:36:51.430Z,1256
2018-12-22T09:38:02.969Z,1240
2018-12-22T09:39:13.119Z,1288
2018-12-22T09:40:23.193Z,1272
2018-12-22T09:41:33.272Z,1268
2018-12-22T09:42:43.409Z,1192
2018-12-22T09:43:53.234Z,1172
2018-12-22T09:45:03.088Z,1272
2018-12-22T09:46:13.194Z,1392
2018-12-22T09:47:23.007Z,1392
2018-12-22T09:48:33.186Z,1368
2018-12-22T09:49:42.749Z,1412
2018-12-22T09:50:52.834Z,1504
2018-12-22T09:52:03.754Z,1568
2018-12-22T09:53:14.909Z,1472
2018-12-22T09:54:24.763Z,1416
2018-12-22T09:55:34.863Z,1408
2018-12-22T09:56:44.937Z,1336
2018-12-22T09:57:55.329Z,1336
2018-12-22T09:59:06.514Z,1376
2018-12-22T10:00:16.918Z,1408
2018-12-22T10:01:27.140Z,1500
2018-12-22T10:02:36.973Z,1620
2018-12-22T10:03:47.046Z,1680
2018-12-22T10:04:57.153Z,1692
2018-12-22T10:06:07.270Z,1748
2018-12-22T10:07:17.316Z,1820
2018-12-22T10:08:27.400Z,1764
2018-12-22T10:09:37.387Z,1744
2018-12-22T10:10:47.465Z,1636
2018-12-22T10:11:57.587Z,1468
2018-12-22T10:13:07.648Z,1356
2018-12-22T10:14:17.823Z,1276
2018-12-22T10:15:27.888Z,1216
2018-12-22T10:16:37.998Z,1196
2018-12-22T10:17:48.116Z,1144
2018-12-22T10:18:58.197Z,1168
2018-12-22T10:20:08.026Z,1312
2018-12-22T10:21:18.110Z,1548
2018-12-22T10:22:28.176Z,1664
2018-12-22T10:23:37.736Z,1704
2018-12-22T10:24:47.816Z,1880
2018-12-22T10:25:57.967Z,2016
2018-12-22T10:27:09.105Z,1996
2018-12-22T10:28:19.208Z,2056
2018-12-22T10:29:28.788Z,2048
2018-12-22T10:30:38.595Z,1988
2018-12-22T10:31:48.396Z,1956
2018-12-22T10:32:58.504Z,1876
2018-12-22T10:34:10.152Z,1904
2018-12-22T10:35:20.234Z,2016
2018-12-22T10:36:29.795Z,2092
2018-12-22T10:37:39.940Z,2136
2018-12-22T10:38:49.503Z,2136
2018-12-22T10:39:59.322Z,2032
2018-12-22T10:41:09.269Z,1884
2018-12-22T10:42:19.066Z,2016
2018-12-22T10:43:28.891Z,2348
2018-12-22T10:44:38.978Z,2552
2018-12-22T10:45:48.805Z,2640
2018-12-22T10:46:58.958Z,2528
2018-12-22T10:48:10.962Z,2244
2018-12-22T10:49:21.014Z,1960
2018-12-22T10:50:31.080Z,1784
2018-12-22T10:51:41.555Z,1772
2018-12-22T10:52:53.657Z,1796
2018-12-22T10:54:03.740Z,1932
2018-12-22T10:55:13.817Z,2156
2018-12-22T10:56:24.033Z,2496
2018-12-22T10:57:34.110Z,2816
2018-12-22T10:58:44.391Z,2896
2018-12-22T10:59:54.530Z,2632
2018-12-22T11:01:04.623Z,2332
2018-12-22T11:02:14.710Z,2064
2018-12-22T11:03:24.826Z,1840
2018-12-22T11:04:34.898Z,1784
2018-12-22T11:05:45.050Z,1836
2018-12-22T11:06:55.138Z,1776
2018-12-22T11:08:05.319Z,1756
2018-12-22T11:09:17.202Z,1804
2018-12-22T11:10:28.142Z,1784
2018-12-22T11:11:39.175Z,1912
2018-12-22T11:12:49.761Z,2224
2018-12-22T11:14:00.106Z,2668
2018-12-22T11:15:10.885Z,3204
2018-12-22T11:16:21.033Z,3672
2018-12-22T11:17:31.124Z,3928
2018-12-22T11:18:41.205Z,3740
2018-12-22T11:19:51.313Z,3684
2018-12-22T11:21:01.427Z,3716
2018-12-22T11:22:11.531Z,3848
2018-12-22T11:23:27.846Z,3672
2018-12-22T11:24:37.762Z,3636
2018-12-22T11:25:47.861Z,3564
2018-12-22T11:26:57.935Z,3452
2018-12-22T11:28:08.030Z,3304
2018-12-22T11:29:18.186Z,3188
2018-12-22T11:30:28.281Z,3176
2018-12-22T11:31:42.341Z,3028
2018-12-22T11:32:52.419Z,4176
2018-12-22T11:34:02.519Z,4508
2018-12-22T11:35:12.339Z,3916
2018-12-22T11:36:22.230Z,4296
2018-12-22T11:37:32.317Z,4608
2018-12-22T11:38:42.220Z,3128
2018-12-22T11:39:52.390Z,2736
2018-12-22T11:41:02.479Z,3324
2018-12-22T11:42:12.548Z,3376
2018-12-22T11:43:22.617Z,4436
2018-12-22T11:44:32.469Z,4684
2018-12-22T11:45:42.611Z,4952
2018-12-22T11:46:52.745Z,5132
2018-12-22T11:48:02.861Z,4512
2018-12-22T11:49:12.702Z,5068
2018-12-22T11:50:22.777Z,5144
2018-12-22T11:51:32.866Z,4496
2018-12-22T11:52:44.395Z,5420
2018-12-22T11:53:54.231Z,3944
2018-12-22T11:55:04.307Z,5208
2018-12-22T11:56:14.427Z,6672
2018-12-22T11:57:24.510Z,6236
2018-12-22T11:58:34.605Z,5532
2018-12-22T11:59:46.141Z,5024
2018-12-22T12:00:56.464Z,3112
2018-12-22T12:02:14.407Z,3088
2018-12-22T12:03:24.511Z,2652
2018-12-22T12:04:34.393Z,2756
2018-12-22T12:05:44.490Z,3192
2018-12-22T12:06:54.576Z,3764
2018-12-22T12:08:05.456Z,3424
2018-12-22T12:09:15.284Z,3084
2018-12-22T12:10:25.104Z,2536
2018-12-22T12:11:35.005Z,1864
2018-12-22T12:12:45.048Z,1464
2018-12-22T12:13:55.349Z,1256
2018-12-22T12:15:05.442Z,1228
2018-12-22T12:16:15.508Z,1084
2018-12-22T12:17:25.582Z,928
2018-12-22T12:18:35.704Z,784
2018-12-22T12:19:45.537Z,792
2018-12-22T12:20:55.719Z,844
2018-12-22T12:22:06.183Z,876
2018-12-22T12:23:16.291Z,1000
2018-12-22T12:24:26.375Z,1032
2018-12-22T12:25:36.195Z,932
2018-12-22T12:26:46.401Z,856
2018-12-22T12:27:56.509Z,792
2018-12-22T12:29:06.841Z,788
2018-12-22T12:30:16.679Z,772
2018-12-22T12:31:26.507Z,640
2018-12-22T12:32:36.376Z,472
2018-12-22T12:33:46.202Z,416
2018-12-22T12:34:56.161Z,428
2018-12-22T12:36:06.848Z,428
2018-12-22T12:37:16.924Z,376
2018-12-22T12:38:27.062Z,304
2018-12-22T12:39:37.189Z,264
2018-12-22T12:40:47.551Z,288
2018-12-22T12:41:57.403Z,384
2018-12-22T12:43:10.393Z,500
2018-12-22T12:44:20.518Z,620
2018-12-22T12:45:30.375Z,700
2018-12-22T12:46:41.791Z,768
2018-12-22T12:47:51.937Z,808
2018-12-22T12:49:02.007Z,732
2018-12-22T12:50:12.070Z,704
2018-12-22T12:51:21.918Z,800
2018-12-22T12:52:31.995Z,1032
2018-12-22T12:53:42.081Z,1244
2018-12-22T12:54:52.157Z,1336
2018-12-22T12:56:02.037Z,1248
2018-12-22T12:57:12.134Z,1064
2018-12-22T12:58:22.231Z,896
2018-12-22T12:59:32.631Z,804
2018-12-22T13:00:42.764Z,760
2018-12-22T13:02:00.714Z,752
2018-12-22T13:03:12.889Z,724
2018-12-22T13:04:22.712Z,756
2018-12-22T13:05:32.782Z,792
2018-12-22T13:06:42.863Z,820
2018-12-22T13:07:52.937Z,836
2018-12-22T13:09:05.021Z,872
2018-12-22T13:10:15.084Z,860
2018-12-22T13:11:24.634Z,852
2018-12-22T13:12:34.733Z,820
2018-12-22T13:13:44.834Z,732
2018-12-22T13:14:54.924Z,652
2018-12-22T13:16:06.833Z,608
2018-12-22T13:17:16.696Z,596
2018-12-22T13:18:26.779Z,592
2018-12-22T13:19:36.847Z,600
2018-12-22T13:20:47.160Z,616
2018-12-22T13:21:57.232Z,640
2018-12-22T13:23:07.531Z,668
2018-12-22T13:24:18.549Z,708
2018-12-22T13:25:28.772Z,764
2018-12-22T13:26:44.159Z,804
2018-12-22T13:27:54.226Z,824
2018-12-22T13:29:04.636Z,836
2018-12-22T13:30:14.708Z,852
2018-12-22T13:31:24.756Z,876
2018-12-22T13:32:34.884Z,920
2018-12-22T13:33:45.429Z,964
2018-12-22T13:34:55.259Z,1016
2018-12-22T13:36:05.407Z,1048
2018-12-22T13:37:15.644Z,1092
2018-12-22T13:38:25.731Z,1124
2018-12-22T13:39:36.012Z,1148
2018-12-22T13:40:45.844Z,1160
2018-12-22T13:41:55.989Z,1156
2018-12-22T13:43:06.058Z,1160
2018-12-22T13:44:15.885Z,1168
2018-12-22T13:45:26.231Z,1180
2018-12-22T13:46:36.557Z,1184
2018-12-22T13:47:47.413Z,1172
2018-12-22T13:48:59.718Z,1168
2018-12-22T13:50:11.204Z,1156
2018-12-22T13:51:21.987Z,1148
2018-12-22T13:52:32.304Z,1172
2018-12-22T13:53:42.429Z,1276
2018-12-22T13:54:52.510Z,1212
2018-12-22T13:56:03.814Z,1464
2018-12-22T13:57:13.875Z,1592
2018-12-22T13:58:23.942Z,1240
2018-12-22T13:59:34.022Z,1036
2018-12-22T14:00:43.899Z,1012
2018-12-22T14:01:54.095Z,996
2018-12-22T14:03:04.149Z,988
2018-12-22T14:04:13.963Z,960
2018-12-22T14:05:24.151Z,936
2018-12-22T14:06:34.072Z,912
2018-12-22T14:07:44.144Z,888
2018-12-22T14:08:53.977Z,872
2018-12-22T14:10:04.056Z,856
2018-12-22T14:11:14.130Z,848
2018-12-22T14:12:23.949Z,840
2018-12-22T14:13:34.024Z,804
2018-12-22T14:14:44.092Z,780
2018-12-22T14:15:53.909Z,776
2018-12-22T14:17:04.169Z,780
2018-12-22T14:18:14.125Z,732
2018-12-22T14:19:24.277Z,716
2018-12-22T14:20:34.370Z,704
2018-12-22T14:21:44.444Z,696
2018-12-22T14:22:54.278Z,680
2018-12-22T14:24:04.375Z,660
2018-12-22T14:25:14.468Z,644
2018-12-22T14:26:24.585Z,628
2018-12-22T14:27:34.719Z,604
2018-12-22T14:28:44.544Z,576
2018-12-22T14:29:54.589Z,548
2018-12-22T14:31:04.681Z,524
2018-12-22T14:32:14.805Z,492
2018-12-22T14:33:24.629Z,468
2018-12-22T14:34:34.729Z,440
2018-12-22T14:35:44.851Z,424
2018-12-22T14:36:54.929Z,408
2018-12-22T14:38:05.126Z,392
2018-12-22T14:39:14.967Z,380
2018-12-22T14:40:24.799Z,364
2018-12-22T14:41:34.729Z,348
2018-12-22T14:42:44.563Z,324
2018-12-22T14:43:54.640Z,308
2018-12-22T14:45:04.517Z,296
2018-12-22T14:46:14.732Z,280
2018-12-22T14:47:24.934Z,264
2018-12-22T14:48:34.777Z,248
2018-12-22T14:49:44.863Z,228
2018-12-22T14:50:54.943Z,208
2018-12-22T14:52:05.007Z,184
2018-12-22T14:53:14.839Z,164
2018-12-22T14:54:24.683Z,140
2018-12-22T14:55:34.513Z,116
2018-12-22T14:56:44.632Z,96
2018-12-22T14:57:54.710Z,88
2018-12-22T14:59:05.694Z,80
2018-12-22T15:00:16.676Z,80
2018-12-22T15:01:26.515Z,76
2018-12-22T15:02:42.599Z,72
2018-12-22T15:03:52.665Z,68
2018-12-22T15:05:02.320Z,60
2018-12-22T15:06:12.440Z,56
2018-12-22T15:07:22.579Z,52
2018-12-22T15:08:32.764Z,48
2018-12-22T15:09:43.078Z,40
2018-12-22T15:10:53.175Z,36
2018-12-22T15:12:03.267Z,32
2018-12-22T15:13:13.408Z,28
2018-12-22T15:14:23.251Z,24
2018-12-22T15:15:33.506Z,20
2018-12-22T15:16:43.601Z,16
2018-12-22T15:17:53.421Z,12
2018-12-22T15:19:03.650Z,12
2018-12-22T15:20:13.725Z,8
2018-12-22T15:21:23.552Z,8
2018-12-22T15:22:33.839Z,8
2018-12-22T15:23:43.669Z,4
2018-12-22T15:24:54.019Z,4
2018-12-22T15:26:04.076Z,4
2018-12-22T15:27:14.135Z,0
2018-12-22T15:28:23.965Z,4
2018-12-22T15:29:34.248Z,4
2018-12-22T15:30:44.339Z,0
2018-12-22T15:31:54.486Z,0
2018-12-22T15:33:04.320Z,0
2018-12-22T15:34:14.583Z,0
2018-12-22T15:35:24.415Z,0
2018-12-22T15:36:34.567Z,0
2018-12-22T15:37:44.670Z,0
2018-12-22T15:38:54.499Z,0
2018-12-22T15:40:04.582Z,0
2018-12-22T15:41:14.428Z,0
2018-12-22T15:42:24.503Z,0
2018-12-22T15:43:34.588Z,0
2018-12-22T15:44:44.663Z,0
2018-12-22T15:45:54.749Z,0
2018-12-22T15:47:04.821Z,0
2018-12-22T15:48:14.903Z,0
2018-12-22T15:49:25.046Z,0
2018-12-22T15:50:35.186Z,0
2018-12-22T15:51:45.524Z,0
2018-12-22T15:52:55.612Z,0
2018-12-22T15:54:06.257Z,0
2018-12-22T15:55:16.329Z,0
2018-12-22T15:56:26.435Z,0
2018-12-22T15:57:36.241Z,0
2018-12-22T15:58:45.574Z,0
2018-12-22T15:59:55.748Z,0
2018-12-22T16:01:06.067Z,0
2018-12-22T16:02:16.165Z,0
2018-12-22T16:03:26.633Z,0
2018-12-22T16:04:36.722Z,0
2018-12-22T16:05:46.793Z,0
2018-12-22T16:06:56.605Z,0
2018-12-22T16:08:06.671Z,0
2018-12-22T16:09:16.738Z,0
2018-12-22T16:10:26.582Z,0
2018-12-22T16:11:36.744Z,0
2018-12-22T16:12:46.953Z,0
2018-12-22T16:13:57.022Z,0
2018-12-22T16:15:07.102Z,0
2018-12-22T16:16:17.244Z,0
2018-12-22T16:17:27.382Z,0
2018-12-22T16:18:37.598Z,0
2018-12-22T16:19:47.689Z,0
2018-12-22T16:20:57.560Z,0
2018-12-22T16:22:07.662Z,0
2018-12-22T16:23:17.728Z,0
2018-12-22T16:24:27.819Z,0
2018-12-22T16:25:37.903Z,0
2018-12-22T16:26:47.741Z,0
2018-12-22T16:27:57.836Z,0
2018-12-22T16:29:09.956Z,0
2018-12-22T16:30:19.790Z,0
2018-12-22T16:31:29.900Z,0
2018-12-22T16:32:41.336Z,0
2018-12-22T16:33:51.525Z,0
2018-12-22T16:35:01.630Z,0
2018-12-22T16:36:11.701Z,0
2018-12-22T16:37:21.790Z,0
2018-12-22T16:38:31.612Z,0
2018-12-22T16:39:41.714Z,0
2018-12-22T16:40:51.293Z,0
2018-12-22T16:42:02.516Z,0
2018-12-22T16:43:12.365Z,0
2018-12-22T16:44:22.440Z,0
2018-12-22T16:45:31.998Z,0
2018-12-22T16:46:42.099Z,0
2018-12-22T16:47:52.203Z,0
2018-12-22T16:49:02.263Z,0
2018-12-22T16:50:12.356Z,0
2018-12-22T16:51:22.445Z,0
2018-12-22T16:52:32.536Z,0
2018-12-22T16:53:42.347Z,0
2018-12-22T16:54:52.164Z,0
2018-12-22T16:56:02.290Z,0
2018-12-22T16:57:12.403Z,0
2018-12-22T16:58:22.481Z,0
2018-12-22T16:59:32.298Z,0
2018-12-22T17:00:42.097Z,0
2018-12-22T17:01:52.173Z,0
2018-12-22T17:03:10.355Z,0
2018-12-22T17:04:20.735Z,0
2018-12-22T17:05:30.797Z,0